Time;durP1;ratioP1;P1;durP2;ratioP2;P2;SDS_P1;SDS_P2;PMS_P1;PMS_P2;Temp;Humidity;BMP_temperature;BMP_pressure;BME280_temperature;BME280_humidity;BME280_pressure;Samples;Min_cycle;Max_cycle;Signal;HPM_P1;HPM_P2
2023/11/23 00:01:34;;;;;;;19.77;7.27;;;2.00;98.00;;;;;;4956266;28;20998;-69
2023/11/23 00:04:01;;;;;;;17.83;6.63;;;2.00;98.00;;;;;;4955948;28;20490;-69
2023/11/23 00:06:28;;;;;;;16.10;6.30;;;1.80;98.00;;;;;;4956569;28;20952;-69
2023/11/23 00:08:55;;;;;;;14.10;5.87;;;1.70;98.00;;;;;;4971750;28;20857;-68
2023/11/23 00:11:24;;;;;;;18.77;7.20;;;1.70;98.00;;;;;;4957024;28;20490;-69
2023/11/23 00:13:52;;;;;;;26.00;8.67;;;1.70;98.00;;;;;;4956919;28;20485;-69
2023/11/23 00:16:21;;;;;;;14.73;6.10;;;1.70;98.00;;;;;;4957163;28;20907;-69
2023/11/23 00:18:48;;;;;;;14.40;6.27;;;1.70;98.00;;;;;;4956739;28;20466;-69
2023/11/23 00:21:15;;;;;;;15.70;6.30;;;1.50;98.00;;;;;;4956741;28;20462;-69
2023/11/23 00:23:42;;;;;;;15.90;6.60;;;1.40;98.00;;;;;;4956898;28;20522;-69
2023/11/23 00:26:13;;;;;;;13.50;6.07;;;1.50;98.00;;;;;;4956748;28;20458;-69
2023/11/23 00:28:40;;;;;;;12.97;5.50;;;1.50;98.00;;;;;;4971272;28;20458;-69
2023/11/23 00:31:08;;;;;;;17.33;7.10;;;1.30;98.00;;;;;;4956594;28;20490;-69
2023/11/23 00:33:37;;;;;;;21.83;7.83;;;1.40;98.00;;;;;;4956564;28;20469;-69
2023/11/23 00:36:05;;;;;;;19.90;7.27;;;1.40;98.00;;;;;;4956557;28;20536;-69
2023/11/23 00:38:33;;;;;;;26.57;8.60;;;1.40;98.00;;;;;;4956640;28;20846;-68
2023/11/23 00:41:01;;;;;;;16.77;6.53;;;1.40;98.00;;;;;;4956072;28;20451;-68
2023/11/23 00:43:28;;;;;;;14.73;6.50;;;1.30;98.00;;;;;;4956436;28;20454;-69
2023/11/23 00:45:55;;;;;;;14.20;6.87;;;1.40;98.00;;;;;;4956428;28;20454;-69
2023/11/23 00:48:22;;;;;;;17.90;6.87;;;1.50;98.00;;;;;;4971362;28;20530;-69
2023/11/23 00:50:50;;;;;;;15.57;6.30;;;1.50;98.00;;;;;;4956318;28;20461;-69
2023/11/23 00:53:17;;;;;;;15.30;6.50;;;1.40;98.00;;;;;;4956096;28;20944;-69
2023/11/23 00:55:44;;;;;;;15.17;6.23;;;1.40;98.00;;;;;;4956400;28;20466;-68
2023/11/23 00:58:11;;;;;;;15.07;5.57;;;1.70;98.00;;;;;;4956054;28;20459;-69
2023/11/23 01:00:39;;;;;;;18.80;7.50;;;1.80;98.00;;;;;;4955708;28;20458;-68
2023/11/23 01:03:07;;;;;;;19.00;6.43;;;2.00;98.00;;;;;;4956001;28;20989;-69
2023/11/23 01:05:35;;;;;;;14.77;6.93;;;2.10;98.00;;;;;;4956019;28;20457;-68
2023/11/23 01:08:05;;;;;;;14.00;6.10;;;2.00;98.00;;;;;;4955905;28;20822;-69
2023/11/23 01:10:32;;;;;;;13.63;6.00;;;2.00;98.00;;;;;;4955412;28;20485;-69
2023/11/23 01:12:59;;;;;;;16.00;6.40;;;1.90;98.00;;;;;;4955633;28;20491;-69
2023/11/23 01:15:27;;;;;;;17.30;6.27;;;1.90;98.00;;;;;;4955826;28;20459;-69
2023/11/23 01:17:53;;;;;;;13.77;5.70;;;1.80;98.00;;;;;;4955568;28;20978;-69
2023/11/23 01:20:20;;;;;;;12.00;5.80;;;1.90;98.00;;;;;;4955813;28;20466;-69
2023/11/23 01:22:48;;;;;;;15.63;6.50;;;1.90;98.00;;;;;;4955417;28;20463;-69
2023/11/23 01:25:18;;;;;;;16.37;6.87;;;1.90;98.00;;;;;;4955409;28;20491;-69
2023/11/23 01:27:45;;;;;;;15.63;6.60;;;1.80;98.00;;;;;;4954468;28;20474;-69
2023/11/23 01:30:14;;;;;;;11.97;5.23;;;1.70;98.00;;;;;;4955512;28;20458;-69
2023/11/23 01:32:41;;;;;;;17.10;7.13;;;1.60;98.00;;;;;;4955478;28;20498;-69
2023/11/23 01:35:09;;;;;;;14.30;5.90;;;1.90;98.00;;;;;;4969972;28;20458;-68
2023/11/23 01:37:36;;;;;;;14.00;6.03;;;2.10;98.00;;;;;;4970024;28;20450;-69
2023/11/23 01:40:04;;;;;;;17.97;6.23;;;2.40;98.00;;;;;;4955183;28;20965;-69
2023/11/23 01:42:32;;;;;;;14.43;5.43;;;2.40;98.00;;;;;;4955232;28;20451;-69
2023/11/23 01:44:59;;;;;;;14.30;5.53;;;2.30;98.00;;;;;;4955039;28;20467;-69
2023/11/23 01:47:28;;;;;;;14.50;6.47;;;2.30;98.00;;;;;;4955594;28;20466;-69
2023/11/23 01:49:57;;;;;;;14.10;6.10;;;2.10;98.00;;;;;;4955260;28;20446;-69
2023/11/23 01:52:24;;;;;;;12.60;5.80;;;1.90;98.00;;;;;;4969077;28;20486;-69
2023/11/23 01:54:52;;;;;;;13.10;5.20;;;1.90;98.00;;;;;;4954708;28;20481;-69
2023/11/23 01:57:20;;;;;;;15.70;5.83;;;1.70;98.00;;;;;;4955099;28;20454;-68
2023/11/23 01:59:48;;;;;;;13.23;5.67;;;1.60;98.00;;;;;;4955015;28;20828;-69
2023/11/23 02:02:16;;;;;;;16.00;6.17;;;1.60;98.00;;;;;;4969684;28;20949;-68
2023/11/23 02:04:44;;;;;;;14.20;6.10;;;1.60;98.00;;;;;;4954931;28;20462;-69
2023/11/23 02:07:12;;;;;;;13.00;5.93;;;1.80;98.00;;;;;;4969636;28;20462;-69
2023/11/23 02:09:41;;;;;;;13.93;5.80;;;1.80;98.00;;;;;;4954681;28;20458;-68
2023/11/23 02:12:09;;;;;;;15.57;5.70;;;1.70;98.00;;;;;;4954682;28;20493;-69
2023/11/23 02:14:36;;;;;;;14.17;5.60;;;1.60;98.00;;;;;;4954809;28;20811;-68
2023/11/23 02:17:17;;;;;;;15.30;5.70;;;1.50;98.00;;;;;;4954837;28;20547;-69
2023/11/23 02:19:44;;;;;;;15.60;5.87;;;1.40;98.00;;;;;;4954429;28;20572;-68
2023/11/23 02:22:14;;;;;;;14.30;5.83;;;1.40;98.00;;;;;;4954653;28;20458;-69
2023/11/23 02:24:44;;;;;;;19.60;6.67;;;1.40;98.00;;;;;;4954656;28;20545;-69
2023/11/23 02:27:14;;;;;;;15.13;6.40;;;1.60;98.00;;;;;;4954709;28;20454;-68
2023/11/23 02:29:41;;;;;;;11.67;5.50;;;1.70;98.00;;;;;;4954742;28;20458;-68
2023/11/23 02:32:10;;;;;;;14.33;5.70;;;1.60;98.00;;;;;;4954479;28;20992;-68
2023/11/23 02:34:38;;;;;;;14.43;5.67;;;1.60;98.00;;;;;;4954432;28;20938;-69
2023/11/23 02:37:06;;;;;;;14.77;5.60;;;1.80;98.00;;;;;;4953398;28;20458;-68
2023/11/23 02:39:33;;;;;;;14.27;6.20;;;1.70;98.00;;;;;;4954405;28;20981;-69
2023/11/23 02:42:02;;;;;;;18.10;6.07;;;1.70;98.00;;;;;;4954389;28;20454;-69
2023/11/23 02:44:29;;;;;;;17.93;6.20;;;1.60;98.00;;;;;;4954260;28;20446;-68
2023/11/23 02:46:57;;;;;;;15.57;6.33;;;1.40;98.00;;;;;;4954183;28;20450;-69
2023/11/23 02:49:24;;;;;;;11.80;5.10;;;1.30;98.00;;;;;;4954006;28;20450;-69
2023/11/23 02:51:51;;;;;;;16.13;6.10;;;1.30;98.00;;;;;;4953704;28;20485;-69
2023/11/23 02:54:28;;;;;;;15.73;6.07;;;1.40;98.00;;;;;;4968621;28;20457;-68
2023/11/23 02:56:55;;;;;;;12.63;5.40;;;1.50;98.00;;;;;;4968876;28;20466;-69
2023/11/23 02:59:24;;;;;;;16.73;6.70;;;1.60;98.00;;;;;;4953848;28;20466;-69
2023/11/23 03:01:51;;;;;;;11.67;4.90;;;1.70;98.00;;;;;;4953819;28;20450;-68
2023/11/23 03:04:18;;;;;;;17.77;5.30;;;1.80;98.00;;;;;;4968498;28;20458;-68
2023/11/23 03:06:45;;;;;;;15.30;5.73;;;1.90;98.00;;;;;;4968633;28;20461;-68
2023/11/23 03:09:13;;;;;;;15.07;5.97;;;1.90;98.00;;;;;;4968384;28;20518;-68
2023/11/23 03:11:41;;;;;;;15.27;5.33;;;1.80;98.00;;;;;;4953774;28;20546;-69
2023/11/23 03:14:08;;;;;;;10.93;4.87;;;1.70;98.00;;;;;;4953735;28;20498;-69
2023/11/23 03:16:41;;;;;;;12.00;5.90;;;1.70;98.00;;;;;;4953814;28;20931;-69
2023/11/23 03:19:08;;;;;;;13.73;6.10;;;1.40;98.00;;;;;;4953499;28;20469;-69
2023/11/23 03:21:35;;;;;;;14.93;5.90;;;1.50;98.00;;;;;;4953832;28;20454;-68
2023/11/23 03:24:02;;;;;;;12.40;5.50;;;1.50;98.00;;;;;;4953604;28;20949;-69
2023/11/23 03:26:29;;;;;;;15.50;6.00;;;1.50;98.00;;;;;;4953862;28;20458;-69
2023/11/23 03:28:56;;;;;;;16.77;6.00;;;1.60;98.00;;;;;;4953781;28;20543;-69
2023/11/23 03:31:23;;;;;;;15.57;6.07;;;1.60;98.00;;;;;;4953947;28;20477;-69
2023/11/23 03:33:52;;;;;;;15.93;6.50;;;1.50;98.00;;;;;;4953616;28;20486;-69
2023/11/23 03:36:20;;;;;;;19.17;5.97;;;1.60;98.00;;;;;;4953588;28;20462;-68
2023/11/23 03:38:47;;;;;;;13.40;6.10;;;1.60;98.00;;;;;;4953522;28;20466;-69
2023/11/23 03:41:14;;;;;;;13.20;5.47;;;1.60;98.00;;;;;;4953727;28;20500;-68
2023/11/23 03:43:42;;;;;;;13.43;5.23;;;1.60;98.00;;;;;;4953726;28;20463;-69
2023/11/23 03:46:10;;;;;;;15.17;5.90;;;1.70;98.00;;;;;;4968263;28;20458;-68
2023/11/23 03:48:37;;;;;;;17.93;6.50;;;1.80;98.00;;;;;;4953454;28;20458;-68
2023/11/23 03:51:06;;;;;;;16.53;5.80;;;1.70;98.00;;;;;;4953584;28;20458;-68
2023/11/23 03:53:33;;;;;;;14.10;5.90;;;1.60;98.00;;;;;;4953290;28;20991;-69
2023/11/23 03:56:00;;;;;;;13.50;6.27;;;1.50;98.00;;;;;;4953534;28;20461;-68
2023/11/23 03:58:28;;;;;;;15.37;6.30;;;1.40;98.00;;;;;;4952302;28;20502;-68
2023/11/23 04:00:55;;;;;;;12.03;5.20;;;1.30;98.00;;;;;;4953488;28;20460;-68
2023/11/23 04:03:22;;;;;;;16.77;6.53;;;1.30;98.00;;;;;;4968321;28;20458;-69
2023/11/23 04:05:49;;;;;;;16.87;5.90;;;1.30;98.00;;;;;;4968214;28;20461;-69
2023/11/23 04:08:21;;;;;;;16.93;5.40;;;1.30;98.00;;;;;;4953307;28;20545;-69
2023/11/23 04:10:49;;;;;;;13.10;4.80;;;1.30;98.00;;;;;;4953177;29;21003;-68
2023/11/23 04:13:19;;;;;;;14.83;5.77;;;1.40;98.00;;;;;;4967733;28;20494;-69
2023/11/23 04:18:14;;;;;;;18.97;6.70;;;1.20;98.00;;;;;;4936001;29;20486;-65
2023/11/23 04:20:41;;;;;;;14.10;5.83;;;1.30;98.00;;;;;;4937105;29;20450;-65
2023/11/23 04:23:11;;;;;;;10.50;4.80;;;1.20;98.00;;;;;;4936837;29;20462;-66
2023/11/23 04:25:39;;;;;;;14.43;6.40;;;1.20;98.00;;;;;;4936802;29;20530;-66
2023/11/23 04:28:06;;;;;;;18.27;5.60;;;1.10;98.00;;;;;;4936835;29;20462;-65
2023/11/23 04:30:33;;;;;;;11.33;5.50;;;1.00;98.00;;;;;;4920071;29;20937;-65
2023/11/23 04:33:01;;;;;;;14.67;5.90;;;1.10;98.00;;;;;;4937194;29;21004;-65
2023/11/23 04:35:28;;;;;;;13.20;5.27;;;1.20;98.00;;;;;;4935396;29;20975;-65
2023/11/23 04:37:55;;;;;;;15.77;6.03;;;1.10;98.00;;;;;;4937150;29;20602;-65
2023/11/23 04:40:22;;;;;;;15.70;6.50;;;1.00;98.00;;;;;;4937223;29;20538;-66
2023/11/23 04:42:51;;;;;;;15.40;6.13;;;1.10;98.00;;;;;;4937140;29;20941;-65
2023/11/23 04:45:19;;;;;;;12.03;5.37;;;1.20;98.00;;;;;;4937160;29;20463;-65
2023/11/23 04:47:46;;;;;;;13.60;5.60;;;1.30;98.00;;;;;;4936537;29;20573;-65
2023/11/23 04:50:13;;;;;;;13.37;5.80;;;1.40;98.00;;;;;;4919708;29;20514;-65
2023/11/23 04:52:40;;;;;;;11.63;5.53;;;1.30;98.00;;;;;;4936332;29;20512;-65
2023/11/23 04:55:09;;;;;;;13.17;5.77;;;1.40;98.00;;;;;;4936267;29;20451;-65
2023/11/23 04:57:36;;;;;;;15.10;6.00;;;1.30;98.00;;;;;;4936273;29;20526;-65
2023/11/23 05:00:15;;;;;;;11.87;5.00;;;1.40;98.00;;;;;;4936113;29;20451;-65
2023/11/23 05:02:43;;;;;;;13.37;5.60;;;1.20;98.00;;;;;;4936305;29;20486;-65
2023/11/23 05:05:12;;;;;;;15.90;5.97;;;1.10;98.00;;;;;;4935981;29;20500;-66
2023/11/23 05:07:39;;;;;;;15.90;5.90;;;1.00;98.00;;;;;;4936304;29;20497;-65
2023/11/23 05:10:09;;;;;;;15.27;6.37;;;0.90;98.00;;;;;;4935942;29;20451;-66
2023/11/23 05:12:36;;;;;;;15.30;6.53;;;0.80;98.00;;;;;;4936102;29;20483;-65
2023/11/23 05:15:03;;;;;;;16.03;6.37;;;0.70;98.00;;;;;;4935907;29;20459;-66
2023/11/23 05:17:33;;;;;;;14.90;6.23;;;0.80;98.00;;;;;;4918938;29;20470;-65
2023/11/23 05:20:00;;;;;;;15.20;5.97;;;0.90;98.00;;;;;;4935456;29;20969;-66
2023/11/23 05:22:27;;;;;;;14.63;5.60;;;0.90;98.00;;;;;;4935897;29;20451;-65
2023/11/23 05:24:55;;;;;;;14.50;5.63;;;0.80;98.00;;;;;;4935806;29;20475;-65
2023/11/23 05:27:22;;;;;;;18.10;6.27;;;0.70;98.00;;;;;;4935844;29;20808;-66
2023/11/23 05:29:49;;;;;;;15.30;6.00;;;0.90;98.00;;;;;;4918842;29;20517;-66
2023/11/23 05:32:16;;;;;;;13.07;5.70;;;1.00;98.00;;;;;;4935464;29;20514;-65
2023/11/23 05:34:44;;;;;;;19.37;6.13;;;1.00;98.00;;;;;;4935492;29;20463;-66
2023/11/23 05:37:11;;;;;;;16.27;6.60;;;1.10;98.00;;;;;;4935264;29;20456;-65
2023/11/23 05:39:38;;;;;;;14.00;6.23;;;1.10;98.00;;;;;;4918569;29;20459;-65
2023/11/23 05:42:06;;;;;;;16.87;6.50;;;1.00;98.00;;;;;;4935244;29;20478;-65
2023/11/23 05:44:33;;;;;;;14.50;5.90;;;1.20;98.00;;;;;;4918538;29;20877;-66
2023/11/23 05:47:00;;;;;;;16.27;6.17;;;1.00;98.00;;;;;;4935413;29;20506;-66
2023/11/23 05:49:27;;;;;;;15.73;5.93;;;1.00;98.00;;;;;;4935296;29;20462;-66
2023/11/23 05:52:03;;;;;;;13.43;5.23;;;1.00;98.00;;;;;;4935376;29;20451;-66
2023/11/23 05:54:30;;;;;;;18.40;5.33;;;0.90;98.00;;;;;;4935237;29;20501;-66
2023/11/23 05:56:59;;;;;;;12.73;5.87;;;0.90;98.00;;;;;;4935123;29;20458;-66
2023/11/23 05:59:26;;;;;;;18.80;6.33;;;0.90;98.00;;;;;;4935067;29;20451;-65
2023/11/23 06:01:56;;;;;;;14.00;6.10;;;1.00;98.00;;;;;;4935122;29;20458;-65
2023/11/23 06:04:23;;;;;;;12.83;5.40;;;0.90;98.00;;;;;;4934890;29;20514;-66
2023/11/23 06:06:52;;;;;;;12.90;5.43;;;0.80;98.00;;;;;;4935147;29;20796;-66
2023/11/23 06:09:21;;;;;;;13.83;5.47;;;0.80;98.00;;;;;;4935176;29;20462;-66
2023/11/23 06:11:49;;;;;;;11.90;5.43;;;0.90;98.00;;;;;;4935452;29;20514;-66
2023/11/23 06:14:17;;;;;;;17.70;5.87;;;0.80;98.00;;;;;;4935012;29;20497;-66
2023/11/23 06:16:44;;;;;;;14.30;5.57;;;0.80;98.00;;;;;;4934781;29;20475;-66
2023/11/23 06:19:12;;;;;;;15.97;5.63;;;0.70;98.00;;;;;;4934670;29;20460;-65
2023/11/23 06:21:39;;;;;;;16.77;6.10;;;0.70;98.00;;;;;;4934857;29;20455;-66
2023/11/23 06:24:08;;;;;;;23.33;5.80;;;0.70;98.00;;;;;;4934594;29;20462;-66
2023/11/23 06:26:36;;;;;;;13.47;5.00;;;0.60;98.00;;;;;;4934541;29;20463;-66
2023/11/23 06:29:03;;;;;;;14.57;5.90;;;0.70;98.00;;;;;;4934417;29;20477;-66
2023/11/23 06:31:31;;;;;;;14.03;5.17;;;0.70;98.00;;;;;;4934658;29;20489;-65
2023/11/23 06:33:58;;;;;;;14.60;5.23;;;0.70;98.00;;;;;;4934464;29;20557;-66
2023/11/23 06:36:26;;;;;;;14.40;5.90;;;0.60;98.00;;;;;;4934453;29;20497;-66
2023/11/23 06:38:53;;;;;;;19.60;5.33;;;0.50;98.00;;;;;;4917157;29;20515;-66
2023/11/23 06:41:21;;;;;;;14.80;5.13;;;0.50;98.00;;;;;;4934459;29;20451;-66
2023/11/23 06:43:51;;;;;;;14.30;5.23;;;0.50;98.00;;;;;;4934263;29;20468;-66
2023/11/23 06:46:19;;;;;;;11.63;5.17;;;0.60;98.00;;;;;;4934256;29;20481;-66
2023/11/23 06:48:47;;;;;;;18.03;6.47;;;0.60;98.00;;;;;;4934152;29;20494;-66
2023/11/23 06:51:14;;;;;;;14.40;5.50;;;0.70;98.00;;;;;;4917331;29;20458;-66
2023/11/23 06:53:46;;;;;;;12.73;5.60;;;0.80;98.00;;;;;;4934231;29;20577;-66
2023/11/23 06:56:13;;;;;;;12.93;5.20;;;0.80;98.00;;;;;;4934064;29;20974;-66
2023/11/23 06:58:42;;;;;;;12.33;5.40;;;0.70;98.00;;;;;;4934261;29;20980;-66
2023/11/23 07:01:11;;;;;;;13.80;5.80;;;0.80;98.00;;;;;;4933787;29;20458;-66
2023/11/23 07:03:39;;;;;;;13.33;5.47;;;0.80;98.00;;;;;;4934078;29;20455;-66
2023/11/23 07:06:07;;;;;;;13.97;5.60;;;0.90;98.00;;;;;;4934213;29;20486;-65
2023/11/23 07:08:34;;;;;;;14.57;5.97;;;1.00;98.00;;;;;;4917200;29;20454;-66
2023/11/23 07:11:04;;;;;;;14.77;6.23;;;1.10;98.00;;;;;;4933841;29;20509;-65
2023/11/23 07:13:31;;;;;;;12.57;5.97;;;1.30;98.00;;;;;;4934050;29;20569;-66
2023/11/23 07:15:59;;;;;;;17.93;6.70;;;1.30;98.00;;;;;;4933722;29;20495;-66
2023/11/23 07:18:28;;;;;;;17.50;6.93;;;1.30;98.00;;;;;;4933984;29;20985;-66
2023/11/23 07:20:56;;;;;;;17.00;6.73;;;1.20;98.00;;;;;;4933765;29;20459;-62
2023/11/23 07:23:24;;;;;;;17.30;6.17;;;1.00;98.00;;;;;;4946363;29;20466;-62
2023/11/23 07:25:53;;;;;;;14.70;6.13;;;1.00;98.00;;;;;;4952843;29;20505;-62
2023/11/23 07:28:21;;;;;;;14.90;6.50;;;1.10;98.00;;;;;;4951846;29;20548;-62
2023/11/23 07:30:49;;;;;;;14.43;5.87;;;1.00;98.00;;;;;;4952921;29;20458;-62
2023/11/23 07:33:17;;;;;;;10.93;5.10;;;1.20;98.00;;;;;;4952714;29;20937;-62
2023/11/23 07:35:46;;;;;;;20.30;8.03;;;1.20;98.00;;;;;;4935972;29;20996;-62
2023/11/23 07:38:14;;;;;;;17.00;6.70;;;1.30;98.00;;;;;;4952827;29;20458;-62
2023/11/23 07:40:41;;;;;;;15.27;5.70;;;1.30;98.00;;;;;;4952774;29;20529;-62
2023/11/23 07:43:09;;;;;;;20.60;6.70;;;1.10;98.00;;;;;;4952853;29;20457;-62
2023/11/23 07:45:37;;;;;;;12.47;5.40;;;1.10;98.00;;;;;;4953425;29;20493;-62
2023/11/23 07:48:08;;;;;;;19.33;7.33;;;1.20;98.00;;;;;;4953638;29;20454;-62
2023/11/23 07:50:35;;;;;;;18.33;6.93;;;1.10;98.00;;;;;;4953970;28;20465;-62
2023/11/23 07:53:04;;;;;;;17.40;6.80;;;1.20;98.00;;;;;;4957483;29;20457;-62
2023/11/23 07:55:32;;;;;;;21.03;7.37;;;1.30;98.00;;;;;;4957392;29;20528;-62
2023/11/23 07:57:59;;;;;;;18.70;7.80;;;1.30;98.00;;;;;;4957283;29;20458;-62
2023/11/23 08:00:27;;;;;;;19.83;7.60;;;1.30;98.00;;;;;;4957124;29;20458;-62
2023/11/23 08:02:54;;;;;;;19.23;7.03;;;1.30;98.00;;;;;;4956763;29;20454;-62
2023/11/23 08:05:21;;;;;;;20.97;7.90;;;1.50;98.00;;;;;;4956924;29;20454;-62
2023/11/23 08:07:50;;;;;;;18.20;6.73;;;1.50;98.00;;;;;;4957213;29;20466;-62
2023/11/23 08:10:19;;;;;;;18.20;7.97;;;1.50;98.00;;;;;;4956808;29;20453;-62
2023/11/23 08:12:46;;;;;;;23.10;9.07;;;1.50;98.00;;;;;;4956939;29;20831;-62
2023/11/23 08:15:14;;;;;;;22.07;7.30;;;1.50;98.00;;;;;;4939501;29;20501;-62
2023/11/23 08:17:42;;;;;;;15.67;6.60;;;1.60;98.00;;;;;;4956758;29;20509;-62
2023/11/23 08:20:13;;;;;;;22.07;7.97;;;1.70;98.00;;;;;;4956706;29;20516;-62
2023/11/23 08:22:41;;;;;;;27.83;10.20;;;1.70;98.00;;;;;;4956896;29;20866;-62
2023/11/23 08:25:08;;;;;;;20.67;7.70;;;1.70;98.00;;;;;;4956357;29;20471;-62
2023/11/23 08:27:37;;;;;;;17.53;6.97;;;1.90;98.00;;;;;;4956533;29;20461;-62
2023/11/23 08:30:06;;;;;;;21.70;7.20;;;1.90;98.00;;;;;;4956593;29;20458;-62
2023/11/23 08:32:33;;;;;;;17.47;6.20;;;1.90;98.00;;;;;;4956485;29;20956;-62
2023/11/23 08:35:01;;;;;;;18.20;6.20;;;1.80;98.00;;;;;;4956256;29;20492;-62
2023/11/23 08:37:28;;;;;;;26.20;8.00;;;1.80;98.00;;;;;;4956626;29;20562;-62
2023/11/23 08:39:56;;;;;;;15.43;6.47;;;1.90;98.00;;;;;;4956348;29;20486;-63
2023/11/23 08:42:23;;;;;;;15.43;5.90;;;2.00;98.00;;;;;;4956519;29;20489;-63
2023/11/23 08:44:53;;;;;;;15.77;5.80;;;2.00;98.00;;;;;;4939262;29;20458;-62
2023/11/23 08:47:20;;;;;;;14.50;5.80;;;2.20;98.00;;;;;;4939408;29;20493;-62
2023/11/23 08:49:46;;;;;;;13.50;5.40;;;2.20;98.00;;;;;;4956166;29;20469;-63
2023/11/23 08:52:14;;;;;;;11.30;5.17;;;2.30;98.00;;;;;;4942282;29;20467;-63
2023/11/23 08:54:42;;;;;;;13.10;6.03;;;2.50;98.00;;;;;;4947709;29;20600;-63
2023/11/23 08:57:09;;;;;;;18.90;5.57;;;2.70;98.00;;;;;;4956041;29;20464;-62
2023/11/23 08:59:37;;;;;;;18.60;6.70;;;2.70;98.00;;;;;;4955394;29;20944;-63
2023/11/23 09:02:07;;;;;;;15.93;6.90;;;2.90;98.00;;;;;;4955559;28;20533;-63
2023/11/23 09:04:36;;;;;;;15.00;6.00;;;2.90;98.00;;;;;;4955977;29;20737;-63
2023/11/23 09:07:03;;;;;;;13.60;6.60;;;3.00;98.00;;;;;;4955931;29;20450;-63
2023/11/23 09:09:30;;;;;;;17.90;5.83;;;3.20;98.00;;;;;;4955905;29;20454;-63
2023/11/23 09:11:59;;;;;;;15.50;6.10;;;3.40;98.00;;;;;;4955717;29;20456;-63
2023/11/23 09:14:26;;;;;;;17.00;6.67;;;3.50;98.00;;;;;;4955753;29;20493;-63
2023/11/23 09:16:54;;;;;;;14.23;5.70;;;3.60;98.00;;;;;;4955614;29;21046;-63
2023/11/23 09:19:22;;;;;;;15.53;6.53;;;3.80;98.00;;;;;;4955629;29;20460;-63
2023/11/23 09:21:50;;;;;;;11.80;5.70;;;4.00;98.00;;;;;;4955643;29;20802;-63
2023/11/23 09:24:19;;;;;;;12.67;5.00;;;4.10;98.00;;;;;;4955549;29;20467;-62
2023/11/23 09:26:47;;;;;;;11.17;4.60;;;4.30;98.00;;;;;;4955660;29;20471;-63
2023/11/23 09:29:14;;;;;;;6.80;3.70;;;4.40;98.00;;;;;;4954776;29;20970;-63
2023/11/23 09:31:41;;;;;;;9.53;4.00;;;4.50;98.00;;;;;;4954572;29;20554;-62
2023/11/23 09:34:08;;;;;;;14.53;4.33;;;4.50;98.00;;;;;;4954620;29;20904;-63
2023/11/23 09:36:39;;;;;;;10.70;4.63;;;4.60;98.00;;;;;;4955191;29;20966;-63
2023/11/23 09:39:07;;;;;;;12.33;4.80;;;4.90;98.00;;;;;;4955254;29;20939;-63
2023/11/23 09:41:42;;;;;;;12.57;4.40;;;4.90;98.00;;;;;;4955536;29;20457;-63
2023/11/23 09:44:09;;;;;;;8.77;4.40;;;5.00;98.00;;;;;;4955779;29;20467;-63
2023/11/23 09:46:41;;;;;;;9.63;4.30;;;5.00;98.00;;;;;;4955712;29;20508;-63
2023/11/23 09:49:09;;;;;;;8.00;4.13;;;4.90;98.00;;;;;;4955058;29;20472;-63
2023/11/23 09:51:38;;;;;;;9.23;4.07;;;4.90;98.00;;;;;;4955556;29;20474;-62
2023/11/23 09:54:06;;;;;;;8.20;3.60;;;4.90;98.00;;;;;;4955138;29;21000;-63
2023/11/23 09:56:34;;;;;;;6.73;3.50;;;5.10;98.00;;;;;;4955040;29;20779;-63
2023/11/23 09:59:01;;;;;;;7.53;3.80;;;5.10;98.00;;;;;;4954901;29;20516;-63
2023/11/23 10:01:29;;;;;;;12.23;4.47;;;5.10;98.00;;;;;;4955284;29;20508;-63
2023/11/23 10:03:56;;;;;;;7.10;3.63;;;5.20;98.00;;;;;;4954871;29;20465;-63
2023/11/23 10:06:23;;;;;;;8.50;3.90;;;5.20;98.00;;;;;;4954515;29;20511;-63
2023/11/23 10:08:52;;;;;;;8.73;3.80;;;5.30;98.00;;;;;;4954604;29;20461;-63
2023/11/23 10:11:19;;;;;;;8.47;4.00;;;5.40;98.00;;;;;;4954664;29;20451;-63
2023/11/23 10:13:47;;;;;;;8.60;3.90;;;5.30;98.00;;;;;;4936982;29;20517;-63
2023/11/23 10:16:14;;;;;;;6.40;3.27;;;5.20;98.00;;;;;;4937172;29;20471;-65
2023/11/23 10:18:43;;;;;;;7.60;3.73;;;5.10;98.00;;;;;;4954655;29;20458;-63
2023/11/23 10:21:12;;;;;;;6.70;3.60;;;5.30;98.00;;;;;;4954590;29;20796;-62
2023/11/23 10:23:40;;;;;;;8.20;3.47;;;5.50;98.00;;;;;;4954725;29;20486;-63
2023/11/23 10:26:10;;;;;;;7.67;3.90;;;5.50;98.00;;;;;;4954394;29;20481;-63
2023/11/23 10:28:38;;;;;;;12.47;4.30;;;5.40;98.00;;;;;;4937250;29;20812;-63
2023/11/23 10:31:06;;;;;;;6.47;3.60;;;5.40;98.00;;;;;;4954143;29;20454;-63
2023/11/23 10:33:35;;;;;;;6.17;3.37;;;5.40;98.00;;;;;;4954431;29;21104;-63
2023/11/23 10:36:08;;;;;;;7.17;3.57;;;5.50;98.00;;;;;;4954101;29;20500;-63
2023/11/23 10:38:39;;;;;;;8.27;3.63;;;5.60;98.00;;;;;;4954136;29;20585;-64
2023/11/23 10:41:07;;;;;;;6.10;3.40;;;5.70;98.00;;;;;;4954017;29;20838;-63
2023/11/23 10:43:37;;;;;;;9.27;3.70;;;5.80;98.00;;;;;;4932697;29;20805;-63
2023/11/23 10:46:09;;;;;;;8.43;3.70;;;5.70;98.00;;;;;;4925172;29;20456;-62
2023/11/23 10:48:36;;;;;;;11.40;4.00;;;5.80;98.00;;;;;;4924602;29;20546;-63
2023/11/23 10:51:05;;;;;;;5.57;3.27;;;5.90;98.00;;;;;;4928727;29;20460;-63
2023/11/23 10:53:33;;;;;;;6.93;3.63;;;5.90;98.00;;;;;;4934927;29;20463;-63
2023/11/23 10:56:06;;;;;;;9.37;3.67;;;5.90;98.00;;;;;;4934972;29;20983;-63
2023/11/23 10:58:38;;;;;;;8.40;3.90;;;5.90;98.00;;;;;;4934969;29;20457;-63
2023/11/23 11:01:07;;;;;;;10.00;3.93;;;5.90;98.00;;;;;;4935130;29;20462;-63
2023/11/23 11:03:35;;;;;;;6.43;3.20;;;5.80;98.00;;;;;;4918248;29;20451;-63
2023/11/23 11:06:09;;;;;;;5.73;3.20;;;5.90;98.00;;;;;;4934876;29;20536;-63
2023/11/23 11:08:39;;;;;;;6.30;3.40;;;6.00;98.00;;;;;;4935126;29;20457;-63
2023/11/23 11:11:10;;;;;;;7.60;3.60;;;5.90;98.00;;;;;;4934785;29;20839;-63
2023/11/23 11:13:43;;;;;;;5.90;3.17;;;6.00;98.00;;;;;;4934833;29;20461;-63
2023/11/23 11:16:14;;;;;;;6.93;3.87;;;6.00;98.00;;;;;;4934662;29;20588;-63
2023/11/23 11:18:49;;;;;;;6.83;3.30;;;6.20;98.00;;;;;;4934854;29;20489;-62
2023/11/23 11:21:18;;;;;;;5.90;2.90;;;6.20;98.00;;;;;;4934772;29;20459;-63
2023/11/23 11:23:47;;;;;;;6.80;2.93;;;6.40;98.00;;;;;;4934936;29;20464;-63
2023/11/23 11:26:18;;;;;;;6.17;3.00;;;6.30;98.00;;;;;;4937337;29;20472;-63
2023/11/23 11:28:54;;;;;;;6.07;3.27;;;6.30;98.00;;;;;;4938782;29;20525;-63
2023/11/23 11:31:31;;;;;;;6.30;3.07;;;6.40;98.00;;;;;;4938944;29;20980;-63
2023/11/23 11:33:58;;;;;;;7.20;3.20;;;6.50;98.00;;;;;;4938723;29;20466;-63
2023/11/23 11:36:28;;;;;;;6.10;2.93;;;6.70;98.00;;;;;;4938586;29;20528;-63
2023/11/23 11:38:56;;;;;;;7.97;2.90;;;6.80;98.00;;;;;;4938857;29;20517;-63
2023/11/23 11:41:28;;;;;;;6.70;3.03;;;6.90;98.00;;;;;;4938037;29;20516;-63
2023/11/23 11:43:57;;;;;;;6.37;3.20;;;6.90;98.00;;;;;;4938272;29;20539;-63
2023/11/23 11:46:24;;;;;;;5.00;3.07;;;6.90;98.00;;;;;;4921212;29;20462;-63
2023/11/23 11:48:51;;;;;;;6.43;3.23;;;7.00;98.00;;;;;;4938377;29;20962;-63
2023/11/23 11:51:19;;;;;;;7.80;3.50;;;7.00;98.00;;;;;;4921214;29;20457;-63
2023/11/23 11:53:46;;;;;;;6.20;2.90;;;6.90;98.00;;;;;;4937930;29;20463;-63
2023/11/23 11:56:14;;;;;;;4.57;2.97;;;6.90;98.00;;;;;;4937818;29;20504;-63
2023/11/23 11:58:41;;;;;;;6.80;3.17;;;7.00;98.00;;;;;;4937966;29;20528;-63
2023/11/23 12:01:11;;;;;;;6.57;3.13;;;7.10;98.00;;;;;;4938080;29;20458;-63
2023/11/23 12:03:38;;;;;;;6.10;2.53;;;7.10;98.00;;;;;;4937971;29;20458;-63
2023/11/23 12:06:06;;;;;;;11.30;2.70;;;7.10;98.00;;;;;;4937725;29;20474;-64
2023/11/23 12:08:34;;;;;;;4.33;2.80;;;7.10;98.00;;;;;;4921189;29;20466;-63
2023/11/23 12:11:05;;;;;;;4.90;2.87;;;7.10;98.00;;;;;;4937747;29;20466;-63
2023/11/23 12:13:35;;;;;;;4.10;2.50;;;7.10;98.00;;;;;;4937984;29;20549;-63
2023/11/23 12:16:02;;;;;;;5.47;2.43;;;7.10;98.00;;;;;;4937683;29;20865;-63
2023/11/23 12:18:35;;;;;;;5.13;2.80;;;7.10;98.00;;;;;;4937701;29;20546;-63
2023/11/23 12:21:04;;;;;;;5.80;2.70;;;7.00;98.00;;;;;;4937613;29;20542;-63
2023/11/23 12:23:41;;;;;;;4.53;2.23;;;7.10;98.00;;;;;;4937797;29;20486;-64
2023/11/23 12:26:09;;;;;;;6.00;2.30;;;7.10;98.00;;;;;;4937574;29;20578;-63
2023/11/23 12:28:37;;;;;;;4.83;2.50;;;7.20;98.00;;;;;;4937459;29;20471;-63
2023/11/23 12:31:04;;;;;;;4.93;2.50;;;7.20;98.00;;;;;;4937394;29;20493;-64
2023/11/23 12:33:33;;;;;;;4.33;2.20;;;7.40;98.00;;;;;;4937454;29;20459;-64
2023/11/23 12:36:01;;;;;;;4.00;2.47;;;7.30;98.00;;;;;;4920682;29;20538;-63
2023/11/23 12:38:28;;;;;;;4.57;2.30;;;7.30;98.00;;;;;;4936792;29;20498;-64
2023/11/23 12:40:56;;;;;;;4.57;2.43;;;7.20;98.00;;;;;;4937223;29;20491;-64
2023/11/23 12:43:23;;;;;;;5.33;2.17;;;7.30;98.00;;;;;;4937297;29;20464;-63
2023/11/23 12:45:52;;;;;;;3.87;2.20;;;7.30;98.00;;;;;;4937237;29;20471;-63
2023/11/23 12:48:19;;;;;;;4.37;2.50;;;7.30;98.00;;;;;;4937357;29;20850;-63
2023/11/23 12:50:49;;;;;;;3.70;2.43;;;7.40;98.00;;;;;;4937156;29;20515;-63
2023/11/23 12:53:18;;;;;;;3.63;2.30;;;7.40;98.00;;;;;;4937193;29;20456;-63
2023/11/23 12:55:45;;;;;;;2.90;2.17;;;7.40;98.00;;;;;;4936914;29;20904;-63
2023/11/23 12:58:16;;;;;;;2.70;2.00;;;7.40;98.00;;;;;;4937035;29;20465;-63